createdAt,value
2018-07-19T00:01:05.915Z,0.00
2018-07-19T00:02:06.578Z,0.00
2018-07-19T00:03:29.439Z,0.00
2018-07-19T00:04:30.346Z,0.00
2018-07-19T00:05:30.353Z,0.00
2018-07-19T00:06:40.771Z,0.00
2018-07-19T00:07:31.467Z,0.00
2018-07-19T00:08:29.768Z,0.00
2018-07-19T00:09:30.038Z,0.00
2018-07-19T00:10:29.534Z,0.00
2018-07-19T00:11:50.291Z,0.00
2018-07-19T00:12:51.367Z,0.00
2018-07-19T00:13:51.462Z,0.00
2018-07-19T00:14:51.474Z,0.00
2018-07-19T00:16:20.486Z,0.00
2018-07-19T00:16:50.589Z,0.00
2018-07-19T00:17:50.906Z,0.00
2018-07-19T00:18:50.693Z,0.00
2018-07-19T00:19:50.618Z,0.00
2018-07-19T00:21:11.433Z,0.00
2018-07-19T00:22:12.249Z,0.00
2018-07-19T00:23:11.803Z,0.00
2018-07-19T00:24:34.637Z,0.00
2018-07-19T00:25:35.922Z,0.00
2018-07-19T00:26:35.053Z,0.00
2018-07-19T00:27:34.859Z,0.00
2018-07-19T00:28:35.666Z,0.00
2018-07-19T00:29:35.897Z,0.00
2018-07-19T00:30:35.270Z,0.00
2018-07-19T00:31:35.552Z,0.00
2018-07-19T00:32:35.671Z,0.00
2018-07-19T00:33:34.624Z,0.00
2018-07-19T00:34:34.595Z,0.00
2018-07-19T00:35:35.063Z,0.00
2018-07-19T00:36:34.864Z,0.00
2018-07-19T00:37:35.232Z,0.00
2018-07-19T00:38:35.526Z,0.00
2018-07-19T00:39:34.909Z,0.00
2018-07-19T00:40:34.776Z,0.00
2018-07-19T00:41:35.059Z,0.00
2018-07-19T00:42:56.291Z,0.00
2018-07-19T00:43:56.748Z,0.00
2018-07-19T00:44:56.520Z,0.00
2018-07-19T00:45:56.851Z,0.00
2018-07-19T00:46:56.730Z,0.00
2018-07-19T00:48:17.176Z,0.00
2018-07-19T00:49:17.704Z,0.00
2018-07-19T00:50:17.542Z,0.00
2018-07-19T00:51:17.445Z,0.00
2018-07-19T00:52:17.562Z,0.00
2018-07-19T00:53:18.415Z,0.00
2018-07-19T00:54:17.579Z,0.00
2018-07-19T00:55:17.344Z,0.00
2018-07-19T00:56:18.330Z,0.00
2018-07-19T00:57:17.993Z,0.00
2018-07-19T00:58:17.744Z,0.00
2018-07-19T00:59:18.029Z,0.00
2018-07-19T01:00:18.526Z,0.00
2018-07-19T01:01:17.746Z,0.00
2018-07-19T01:02:17.649Z,0.00
2018-07-19T01:03:17.467Z,0.00
2018-07-19T01:04:18.670Z,0.00
2018-07-19T01:05:17.505Z,0.00
2018-07-19T01:06:17.369Z,0.00
2018-07-19T01:07:38.146Z,0.00
2018-07-19T01:09:20.496Z,0.00
2018-07-19T01:10:20.087Z,0.00
2018-07-19T01:11:20.722Z,0.00
2018-07-19T01:12:20.551Z,0.00
2018-07-19T01:13:41.060Z,0.00
2018-07-19T01:14:41.961Z,0.00
2018-07-19T01:15:42.236Z,0.00
2018-07-19T01:17:02.926Z,0.00
2018-07-19T01:18:03.581Z,0.00
2018-07-19T01:19:03.809Z,0.00
2018-07-19T01:20:02.724Z,0.00
2018-07-19T01:21:24.055Z,0.00
2018-07-19T01:22:45.560Z,0.00
2018-07-19T01:24:27.238Z,0.00
2018-07-19T01:25:27.832Z,0.00
2018-07-19T01:26:28.037Z,0.00
2018-07-19T01:27:26.970Z,0.00
2018-07-19T01:28:27.446Z,0.00
2018-07-19T01:29:27.197Z,0.00
2018-07-19T01:30:27.457Z,0.00
2018-07-19T01:31:27.264Z,0.00
2018-07-19T01:33:30.289Z,0.00
2018-07-19T01:34:30.037Z,0.00
2018-07-19T01:35:30.437Z,0.00
2018-07-19T01:36:30.471Z,0.00
2018-07-19T01:37:30.361Z,0.00
2018-07-19T01:38:30.612Z,0.00
2018-07-19T01:39:30.439Z,0.00
2018-07-19T01:40:30.622Z,0.00
2018-07-19T01:41:30.540Z,0.00
2018-07-19T01:42:30.781Z,0.00
2018-07-19T01:43:30.956Z,0.00
2018-07-19T01:44:30.395Z,0.00
2018-07-19T01:45:30.510Z,0.00
2018-07-19T01:46:30.370Z,0.00
2018-07-19T01:47:30.996Z,0.00
2018-07-19T01:48:31.185Z,0.00
2018-07-19T01:49:53.015Z,0.00
2018-07-19T01:50:52.759Z,0.00
2018-07-19T01:52:36.037Z,0.00
2018-07-19T01:53:37.010Z,0.00
2018-07-19T01:54:36.301Z,0.00
2018-07-19T01:55:36.173Z,0.00
2018-07-19T01:56:36.060Z,0.00
2018-07-19T01:58:17.284Z,0.00
2018-07-19T01:59:17.549Z,0.00
2018-07-19T02:00:17.496Z,0.00
2018-07-19T02:01:38.755Z,0.00
2018-07-19T02:02:38.589Z,0.00
2018-07-19T02:03:38.674Z,0.00
2018-07-19T02:04:38.773Z,0.00
2018-07-19T02:05:38.575Z,0.00
2018-07-19T02:06:39.429Z,0.00
2018-07-19T02:07:38.237Z,0.00
2018-07-19T02:08:38.850Z,0.00
2018-07-19T02:09:39.139Z,0.00
2018-07-19T02:10:39.343Z,0.00
2018-07-19T02:11:39.340Z,0.00
2018-07-19T02:12:38.472Z,0.00
2018-07-19T02:13:38.718Z,0.00
2018-07-19T02:14:38.996Z,0.00
2018-07-19T02:15:38.743Z,0.00
2018-07-19T02:16:39.350Z,0.00
2018-07-19T02:17:38.451Z,0.00
2018-07-19T02:18:38.227Z,0.00
2018-07-19T02:19:38.662Z,0.00
2018-07-19T02:20:38.883Z,0.00
2018-07-19T02:21:59.186Z,0.00
2018-07-19T02:22:59.835Z,0.00
2018-07-19T02:23:59.759Z,0.00
2018-07-19T02:24:59.773Z,0.00
2018-07-19T02:25:59.911Z,0.00
2018-07-19T02:27:00.080Z,0.00
2018-07-19T02:27:59.815Z,0.00
2018-07-19T02:29:00.012Z,0.00
2018-07-19T02:29:59.903Z,0.00
2018-07-19T02:31:00.108Z,0.00
2018-07-19T02:32:00.021Z,0.00
2018-07-19T02:32:59.747Z,0.00
2018-07-19T02:33:59.390Z,1.00
2018-07-19T02:34:59.222Z,1.00
2018-07-19T02:35:59.658Z,1.00
2018-07-19T02:36:59.532Z,1.00
2018-07-19T02:37:59.631Z,0.00
2018-07-19T02:39:21.080Z,1.00
2018-07-19T02:40:21.444Z,1.00
2018-07-19T02:41:42.288Z,2.00
2018-07-19T02:42:42.958Z,1.00
2018-07-19T02:44:03.806Z,2.00
2018-07-19T02:45:24.436Z,3.00
2018-07-19T02:46:25.658Z,3.00
2018-07-19T02:47:25.338Z,2.00
2018-07-19T02:48:25.716Z,3.00
2018-07-19T02:49:25.080Z,4.00
2018-07-19T02:50:24.914Z,4.00
2018-07-19T02:51:25.422Z,4.00
2018-07-19T02:52:47.741Z,6.00
2018-07-19T02:53:46.448Z,7.00
2018-07-19T02:54:47.172Z,8.00
2018-07-19T02:55:46.853Z,9.00
2018-07-19T02:57:07.578Z,11.00
2018-07-19T02:58:08.455Z,12.00
2018-07-19T02:59:08.015Z,13.00
2018-07-19T03:00:08.185Z,16.00
2018-07-19T03:01:08.041Z,18.00
2018-07-19T03:02:08.225Z,19.00
2018-07-19T03:03:08.901Z,23.00
2018-07-19T03:04:07.630Z,26.00
2018-07-19T03:05:08.463Z,30.00
2018-07-19T03:06:07.813Z,34.00
2018-07-19T03:07:09.028Z,39.00
2018-07-19T03:08:28.282Z,45.00
2018-07-19T03:09:29.516Z,52.00
2018-07-19T03:10:28.935Z,59.00
2018-07-19T03:11:28.827Z,66.00
2018-07-19T03:12:28.853Z,74.00
2018-07-19T03:13:29.084Z,83.00
2018-07-19T03:14:28.822Z,94.00
2018-07-19T03:15:29.101Z,104.00
2018-07-19T03:16:28.943Z,116.00
2018-07-19T03:17:29.640Z,128.00
2018-07-19T03:18:28.431Z,142.00
2018-07-19T03:19:28.321Z,156.00
2018-07-19T03:20:28.842Z,173.00
2018-07-19T03:21:29.261Z,190.00
2018-07-19T03:22:29.240Z,208.00
2018-07-19T03:23:28.629Z,227.00
2018-07-19T03:24:28.904Z,247.00
2018-07-19T03:25:28.716Z,268.00
2018-07-19T03:26:28.985Z,291.00
2018-07-19T03:27:29.352Z,315.00
2018-07-19T03:28:29.287Z,339.00
2018-07-19T03:30:33.378Z,396.00
2018-07-19T03:31:33.753Z,424.00
2018-07-19T03:32:33.950Z,456.00
2018-07-19T03:34:14.735Z,510.00
2018-07-19T03:35:15.212Z,542.00
2018-07-19T03:36:15.190Z,577.00
2018-07-19T03:37:15.455Z,615.00
2018-07-19T03:38:15.723Z,651.00
2018-07-19T03:39:15.242Z,691.00
2018-07-19T03:40:15.273Z,734.00
2018-07-19T03:41:15.788Z,777.00
2018-07-19T03:42:15.310Z,822.00
2018-07-19T03:43:15.457Z,868.00
2018-07-19T03:44:15.690Z,916.00
2018-07-19T03:45:14.984Z,965.00
2018-07-19T03:46:15.248Z,1015.00
2018-07-19T03:47:15.285Z,1065.00
2018-07-19T03:48:15.219Z,1115.00
2018-07-19T03:49:36.178Z,1184.00
2018-07-19T03:50:36.182Z,1238.00
2018-07-19T03:51:36.551Z,1294.00
2018-07-19T03:52:57.816Z,1373.00
2018-07-19T03:53:58.485Z,1432.00
2018-07-19T03:54:58.645Z,1492.00
2018-07-19T03:55:57.895Z,1552.00
2018-07-19T03:57:20.012Z,1635.00
2018-07-19T03:58:19.005Z,1703.00
2018-07-19T03:59:19.429Z,1769.00
2018-07-19T04:00:19.724Z,1837.00
2018-07-19T04:01:18.841Z,1900.00
2018-07-19T04:02:18.876Z,1963.00
2018-07-19T04:03:19.695Z,2027.00
2018-07-19T04:04:19.818Z,2093.00
2018-07-19T04:05:18.750Z,2158.00
2018-07-19T04:06:19.737Z,2225.00
2018-07-19T04:07:19.145Z,2294.00
2018-07-19T04:08:19.007Z,2370.00
2018-07-19T04:09:19.407Z,2445.00
2018-07-19T04:10:18.901Z,2522.00
2018-07-19T04:11:19.083Z,2596.00
2018-07-19T04:12:40.135Z,2697.00
2018-07-19T04:13:40.033Z,2773.00
2018-07-19T04:14:40.090Z,2850.00
2018-07-19T04:15:40.826Z,2927.00
2018-07-19T04:16:40.644Z,3002.00
2018-07-19T04:17:40.830Z,3082.00
2018-07-19T04:19:01.238Z,3194.00
2018-07-19T04:20:22.764Z,3307.00
2018-07-19T04:21:23.962Z,3391.00
2018-07-19T04:22:22.930Z,3466.00
2018-07-19T04:23:23.343Z,3543.00
2018-07-19T04:24:44.427Z,3664.00
2018-07-19T04:25:44.894Z,3759.00
2018-07-19T04:27:05.700Z,3888.00
2018-07-19T04:28:27.357Z,4025.00
2018-07-19T04:29:49.178Z,4160.00
2018-07-19T04:30:49.085Z,4257.00
2018-07-19T04:31:48.996Z,4357.00
2018-07-19T04:33:10.540Z,4490.00
2018-07-19T04:34:11.007Z,4586.00
2018-07-19T04:35:32.346Z,5547.00
2018-07-19T04:36:32.283Z,6171.00
2018-07-19T04:37:32.707Z,6281.00
2018-07-19T04:38:32.587Z,6322.00
2018-07-19T04:39:32.580Z,6509.00
2018-07-19T04:40:32.861Z,7020.00
2018-07-19T04:41:33.283Z,7566.00
2018-07-19T04:42:33.009Z,7068.00
2018-07-19T04:44:14.296Z,6039.00
2018-07-19T04:45:14.988Z,6791.00
2018-07-19T04:46:15.187Z,7578.00
2018-07-19T04:47:35.123Z,7739.00
2018-07-19T04:48:35.439Z,7789.00
2018-07-19T04:49:35.001Z,7869.00
2018-07-19T04:50:34.847Z,7689.00
2018-07-19T04:51:35.659Z,6915.00
2018-07-19T04:52:35.154Z,6479.00
2018-07-19T04:53:35.393Z,6491.00
2018-07-19T04:54:35.146Z,6869.00
2018-07-19T04:55:35.571Z,7124.00
2018-07-19T04:56:34.927Z,7262.00
2018-07-19T04:57:35.479Z,7047.00
2018-07-19T04:58:35.878Z,6876.00
2018-07-19T04:59:35.721Z,7000.00
2018-07-19T05:00:35.591Z,7135.00
2018-07-19T05:01:35.926Z,7295.00
2018-07-19T05:02:35.317Z,7452.00
2018-07-19T05:03:35.251Z,7608.00
2018-07-19T05:04:35.723Z,7729.00
2018-07-19T05:05:35.659Z,7809.00
2018-07-19T05:06:34.913Z,7857.00
2018-07-19T05:07:34.704Z,7974.00
2018-07-19T05:08:35.698Z,8191.00
2018-07-19T05:09:34.751Z,8535.00
2018-07-19T05:10:35.974Z,9093.00
2018-07-19T05:11:56.643Z,10157.00
2018-07-19T05:12:57.854Z,10991.00
2018-07-19T05:13:58.136Z,11642.00
2018-07-19T05:14:57.086Z,12148.00
2018-07-19T05:15:57.390Z,12576.00
2018-07-19T05:16:57.550Z,13042.00
2018-07-19T05:17:57.125Z,13672.00
2018-07-19T05:18:56.941Z,14308.00
2018-07-19T05:19:57.304Z,13899.00
2018-07-19T05:20:57.572Z,13250.00
2018-07-19T05:21:57.403Z,12857.00
2018-07-19T05:22:57.359Z,12593.00
2018-07-19T05:23:57.133Z,12296.00
2018-07-19T05:24:57.537Z,12052.00
2018-07-19T05:25:57.730Z,11835.00
2018-07-19T05:26:56.642Z,11639.00
2018-07-19T05:27:57.029Z,11432.00
2018-07-19T05:28:57.883Z,11150.00
2018-07-19T05:29:56.758Z,11028.00
2018-07-19T05:30:56.602Z,11050.00
2018-07-19T05:31:57.162Z,11195.00
2018-07-19T05:32:57.360Z,11320.00
2018-07-19T05:33:57.206Z,11461.00
2018-07-19T05:35:18.255Z,11592.00
2018-07-19T05:36:39.217Z,11791.00
2018-07-19T05:37:40.612Z,11992.00
2018-07-19T05:38:40.111Z,12136.00
2018-07-19T05:39:40.354Z,12263.00
2018-07-19T05:40:39.676Z,12373.00
2018-07-19T05:42:03.506Z,12686.00
2018-07-19T05:43:03.990Z,13059.00
2018-07-19T05:44:26.165Z,13488.00
2018-07-19T05:45:25.762Z,13916.00
2018-07-19T05:46:26.311Z,14345.00
2018-07-19T05:47:25.811Z,14670.00
2018-07-19T05:48:46.382Z,14881.00
2018-07-19T05:49:47.321Z,15037.00
2018-07-19T05:51:07.298Z,15196.00
2018-07-19T05:52:29.330Z,15589.00
2018-07-19T05:53:30.291Z,15887.00
2018-07-19T05:54:30.557Z,16132.00
2018-07-19T05:55:30.244Z,16576.00
2018-07-19T05:56:29.708Z,17608.00
2018-07-19T05:57:30.133Z,17384.00
2018-07-19T05:58:29.810Z,17768.00
2018-07-19T05:59:30.049Z,17384.00
2018-07-19T06:00:30.156Z,20360.00
2018-07-19T06:01:30.796Z,17264.00
2018-07-19T06:02:50.715Z,17168.00
2018-07-19T06:03:50.691Z,19640.00
2018-07-19T06:05:12.326Z,17408.00
2018-07-19T06:06:12.463Z,23208.00
2018-07-19T06:07:12.004Z,28384.00
2018-07-19T06:08:12.866Z,19504.00
2018-07-19T06:09:12.736Z,20216.00
2018-07-19T06:10:12.791Z,17768.00
2018-07-19T06:11:13.059Z,18032.00
2018-07-19T06:12:12.215Z,19088.00
2018-07-19T06:13:13.523Z,19688.00
2018-07-19T06:14:12.841Z,18504.00
2018-07-19T06:15:34.204Z,19224.00
2018-07-19T06:17:44.707Z,25760.00
2018-07-19T06:18:45.186Z,21976.00
2018-07-19T06:19:44.744Z,22592.00
2018-07-19T06:20:45.251Z,22872.00
2018-07-19T06:21:44.451Z,23120.00
2018-07-19T06:22:44.791Z,23384.00
2018-07-19T06:23:44.406Z,23232.00
2018-07-19T06:24:44.217Z,22960.00
2018-07-19T06:25:44.387Z,22648.00
2018-07-19T06:27:06.146Z,22280.00
2018-07-19T06:28:06.457Z,38616.00
2018-07-19T06:29:06.754Z,36400.00
2018-07-19T06:30:07.128Z,36824.00
2018-07-19T06:31:06.369Z,35576.00
2018-07-19T06:32:06.734Z,30360.00
2018-07-19T06:33:26.995Z,22064.00
2018-07-19T06:34:27.468Z,31472.00
2018-07-19T06:35:27.808Z,31896.00
2018-07-19T06:36:28.205Z,32448.00
2018-07-19T06:37:27.796Z,34440.00
2018-07-19T06:38:27.798Z,36000.00
2018-07-19T06:39:27.701Z,29800.00
2018-07-19T06:40:27.125Z,28928.00
2018-07-19T06:41:28.327Z,34112.00
2018-07-19T06:42:48.466Z,33256.00
2018-07-19T06:43:48.594Z,28136.00
2018-07-19T06:44:49.444Z,34488.00
2018-07-19T06:46:52.659Z,36688.00
2018-07-19T06:47:52.356Z,35560.00
2018-07-19T06:48:53.552Z,35992.00
2018-07-19T06:49:52.755Z,37432.00
2018-07-19T06:50:52.300Z,38040.00
2018-07-19T06:52:14.573Z,38592.00
2018-07-19T06:53:14.754Z,38728.00
2018-07-19T06:54:14.903Z,40080.00
2018-07-19T06:55:14.987Z,39168.00
2018-07-19T06:56:14.713Z,38104.00
2018-07-19T06:57:14.513Z,38864.00
2018-07-19T06:58:14.950Z,38904.00
2018-07-19T06:59:15.442Z,39312.00
2018-07-19T07:00:14.729Z,40032.00
2018-07-19T07:01:14.915Z,41720.00
2018-07-19T07:02:14.296Z,43200.00
2018-07-19T07:03:14.674Z,41960.00
2018-07-19T07:04:14.646Z,42264.00
2018-07-19T07:05:15.234Z,44064.00
2018-07-19T07:06:15.415Z,46144.00
2018-07-19T07:07:14.259Z,48672.00
2018-07-19T07:08:14.861Z,48760.00
2018-07-19T07:09:14.562Z,47368.00
2018-07-19T07:10:14.459Z,33656.00
2018-07-19T07:11:15.308Z,22656.00
2018-07-19T07:12:14.526Z,22840.00
2018-07-19T07:13:15.057Z,24680.00
2018-07-19T07:14:35.843Z,47480.00
2018-07-19T07:15:39.071Z,50432.00
2018-07-19T07:16:37.094Z,49016.00
2018-07-19T07:17:36.393Z,47808.00
2018-07-19T07:18:35.912Z,45352.00
2018-07-19T07:19:36.948Z,48240.00
2018-07-19T07:20:36.407Z,48768.00
2018-07-19T07:21:36.325Z,50560.00
2018-07-19T07:22:36.228Z,48160.00
2018-07-19T07:23:36.092Z,47256.00
2018-07-19T07:24:36.447Z,43448.00
2018-07-19T07:25:37.266Z,27760.00
2018-07-19T07:26:36.570Z,55336.00
2018-07-19T07:27:36.840Z,28560.00
2018-07-19T07:28:36.541Z,22664.00
2018-07-19T07:29:37.613Z,46224.00
2018-07-19T07:30:38.162Z,50496.00
2018-07-19T07:31:37.094Z,56520.00
2018-07-19T07:32:36.101Z,55672.00
2018-07-19T07:33:36.374Z,53240.00
2018-07-19T07:34:36.000Z,52800.00
2018-07-19T07:35:36.770Z,51472.00
2018-07-19T07:37:02.565Z,49968.00
2018-07-19T07:37:58.431Z,50216.00
2018-07-19T07:39:19.245Z,52024.00
2018-07-19T07:40:19.270Z,55872.00
2018-07-19T07:41:19.238Z,58592.00
2018-07-19T07:42:20.708Z,59744.00
2018-07-19T07:43:40.506Z,60680.00
2018-07-19T07:44:40.396Z,58664.00
2018-07-19T07:45:40.840Z,59312.00
2018-07-19T07:46:40.638Z,61656.00
2018-07-19T07:47:40.926Z,63400.00
2018-07-19T07:48:40.990Z,63912.00
2018-07-19T07:49:41.429Z,64648.00
2018-07-19T07:50:41.637Z,65535.00
2018-07-19T07:51:41.224Z,65535.00
2018-07-19T07:52:40.226Z,63544.00
2018-07-19T07:53:40.852Z,63392.00
2018-07-19T07:54:40.772Z,65535.00
2018-07-19T07:55:41.236Z,65535.00
2018-07-19T07:56:40.818Z,65535.00
2018-07-19T07:57:40.801Z,65535.00
2018-07-19T07:58:40.868Z,65535.00
2018-07-19T07:59:40.794Z,65535.00
2018-07-19T08:01:03.349Z,57568.00
2018-07-19T08:02:02.312Z,39208.00
2018-07-19T08:03:03.499Z,43336.00
2018-07-19T08:04:02.979Z,50480.00
2018-07-19T08:05:02.712Z,51496.00
2018-07-19T08:06:03.356Z,65535.00
2018-07-19T08:07:02.433Z,65535.00
2018-07-19T08:08:01.973Z,65535.00
2018-07-19T08:09:02.010Z,65535.00
2018-07-19T08:10:01.900Z,65535.00
2018-07-19T08:11:03.273Z,65535.00
2018-07-19T08:12:02.691Z,55384.00
2018-07-19T08:13:03.556Z,48312.00
2018-07-19T08:14:02.810Z,65535.00
2018-07-19T08:15:02.315Z,65535.00
2018-07-19T08:16:02.586Z,65535.00
2018-07-19T08:17:08.469Z,65535.00
2018-07-19T08:18:05.030Z,65535.00
2018-07-19T08:19:09.925Z,65535.00
2018-07-19T08:20:07.571Z,65535.00
2018-07-19T08:21:02.925Z,65535.00
2018-07-19T08:22:06.295Z,65535.00
2018-07-19T08:23:04.797Z,65535.00
2018-07-19T08:24:07.151Z,65535.00
2018-07-19T08:25:06.843Z,65535.00
2018-07-19T08:26:24.620Z,65535.00
2018-07-19T08:27:49.170Z,65535.00
2018-07-19T08:28:48.542Z,65535.00
2018-07-19T08:29:49.917Z,65535.00
2018-07-19T08:30:48.275Z,61392.00
2018-07-19T08:31:50.080Z,65535.00
2018-07-19T08:32:48.052Z,65535.00
2018-07-19T08:33:48.334Z,59760.00
2018-07-19T08:34:48.478Z,63776.00
2018-07-19T08:35:48.612Z,60008.00
2018-07-19T08:36:49.124Z,65535.00
2018-07-19T08:37:48.960Z,65535.00
2018-07-19T08:38:49.365Z,65535.00
2018-07-19T08:39:48.154Z,52160.00
2018-07-19T08:40:48.677Z,65535.00
2018-07-19T08:42:31.692Z,65535.00
2018-07-19T08:43:30.997Z,65535.00
2018-07-19T08:44:51.452Z,65535.00
2018-07-19T08:45:53.550Z,65535.00
2018-07-19T08:47:12.672Z,65535.00
2018-07-19T08:48:14.776Z,65535.00
2018-07-19T08:49:13.277Z,65535.00
2018-07-19T08:50:13.447Z,65535.00
2018-07-19T08:51:13.279Z,65535.00
2018-07-19T08:53:15.675Z,65535.00
2018-07-19T08:54:16.633Z,65535.00
2018-07-19T08:55:16.057Z,65535.00
2018-07-19T08:56:37.395Z,65535.00
2018-07-19T08:57:37.636Z,65535.00
2018-07-19T08:58:37.956Z,50384.00
2018-07-19T08:59:57.944Z,60560.00
2018-07-19T09:00:58.342Z,54016.00
2018-07-19T09:01:58.270Z,59368.00
2018-07-19T09:02:58.333Z,59872.00
2018-07-19T09:04:05.253Z,52216.00
2018-07-19T09:05:11.961Z,52416.00
2018-07-19T09:06:00.370Z,40312.00
2018-07-19T09:09:47.464Z,65535.00
2018-07-19T09:11:08.950Z,65535.00
2018-07-19T09:12:08.786Z,65535.00
2018-07-19T09:13:10.188Z,65535.00
2018-07-19T09:14:33.181Z,65535.00
2018-07-19T09:15:33.322Z,65535.00
2018-07-19T09:16:32.408Z,65535.00
2018-07-19T09:17:36.732Z,65535.00
2018-07-19T09:18:33.925Z,65535.00
2018-07-19T09:20:05.317Z,65535.00
2018-07-19T09:21:09.477Z,65535.00
2018-07-19T09:22:43.321Z,65535.00
2018-07-19T09:23:38.960Z,65535.00
2018-07-19T09:25:10.351Z,65535.00
2018-07-19T09:26:03.659Z,65535.00
2018-07-19T09:27:00.969Z,65535.00
2018-07-19T09:28:04.443Z,65535.00
2018-07-19T09:29:07.347Z,65535.00
2018-07-19T09:31:04.080Z,65535.00
2018-07-19T09:32:00.983Z,65535.00
2018-07-19T09:33:04.106Z,65535.00
2018-07-19T09:34:20.926Z,65535.00
2018-07-19T09:35:18.114Z,65535.00
2018-07-19T09:36:05.052Z,65535.00
2018-07-19T09:37:02.810Z,65535.00
2018-07-19T09:38:05.361Z,65535.00
2018-07-19T09:39:01.488Z,65535.00
2018-07-19T09:40:03.087Z,65535.00
2018-07-19T09:40:57.859Z,65535.00
2018-07-19T09:42:03.156Z,65535.00
2018-07-19T09:42:59.188Z,65535.00
2018-07-19T09:43:57.725Z,65535.00
2018-07-19T09:45:01.702Z,65535.00
2018-07-19T09:45:57.287Z,65535.00
2018-07-19T09:46:56.691Z,65535.00
2018-07-19T09:47:56.064Z,65535.00
2018-07-19T09:48:56.569Z,65535.00
2018-07-19T09:49:58.432Z,65535.00
2018-07-19T09:51:00.391Z,65535.00
2018-07-19T09:51:58.357Z,65535.00
2018-07-19T09:52:56.681Z,65535.00
2018-07-19T09:54:16.923Z,65535.00
2018-07-19T09:55:17.698Z,65535.00
2018-07-19T09:56:58.334Z,65535.00
2018-07-19T09:57:59.776Z,65535.00
2018-07-19T09:58:58.505Z,65535.00
2018-07-19T09:59:58.757Z,65535.00
2018-07-19T10:00:59.119Z,65535.00
2018-07-19T10:09:01.808Z,65535.00
2018-07-19T10:10:09.031Z,65535.00
2018-07-19T10:11:10.161Z,65535.00
2018-07-19T10:12:30.830Z,65535.00
2018-07-19T10:13:34.019Z,65535.00
2018-07-19T10:14:31.355Z,65535.00
2018-07-19T10:15:31.558Z,65535.00
2018-07-19T10:16:31.777Z,65535.00
2018-07-19T10:17:32.263Z,65535.00
2018-07-19T10:18:31.951Z,65535.00
2018-07-19T10:19:31.397Z,65535.00
2018-07-19T10:20:32.315Z,65535.00
2018-07-19T10:21:32.104Z,65535.00
2018-07-19T10:22:31.040Z,65535.00
2018-07-19T10:23:54.306Z,65535.00
2018-07-19T10:24:54.205Z,65535.00
2018-07-19T10:25:54.394Z,65535.00
2018-07-19T10:26:54.976Z,65535.00
2018-07-19T10:27:55.203Z,65535.00
2018-07-19T10:28:55.258Z,65535.00
2018-07-19T10:29:54.609Z,65535.00
2018-07-19T10:30:54.535Z,65535.00
2018-07-19T10:31:54.845Z,65535.00
2018-07-19T10:32:54.707Z,65535.00
2018-07-19T10:33:54.503Z,65535.00
2018-07-19T10:34:54.631Z,65535.00
2018-07-19T10:35:54.991Z,65535.00
2018-07-19T10:36:54.353Z,65535.00
2018-07-19T10:37:54.566Z,65535.00
2018-07-19T10:38:54.839Z,65535.00
2018-07-19T10:39:54.860Z,65535.00
2018-07-19T10:40:54.937Z,65535.00
2018-07-19T10:41:55.234Z,65535.00
2018-07-19T10:42:54.804Z,65535.00
2018-07-19T10:43:55.457Z,65535.00
2018-07-19T10:44:54.541Z,65535.00
2018-07-19T10:45:54.664Z,65535.00
2018-07-19T10:50:42.968Z,65535.00
2018-07-19T10:51:44.115Z,65535.00
2018-07-19T10:52:49.045Z,65535.00
2018-07-19T10:53:48.382Z,65535.00
2018-07-19T10:54:42.856Z,65535.00
2018-07-19T10:56:03.673Z,65535.00
2018-07-19T10:58:50.462Z,65535.00
2018-07-19T10:59:48.951Z,65535.00
2018-07-19T11:00:26.904Z,65535.00
2018-07-19T11:01:29.015Z,65535.00
2018-07-19T11:02:13.209Z,65535.00
2018-07-19T11:03:13.124Z,65535.00
2018-07-19T11:04:13.068Z,65535.00
2018-07-19T11:05:56.036Z,65535.00
2018-07-19T11:06:56.948Z,65535.00
2018-07-19T11:07:56.805Z,65535.00
2018-07-19T11:08:56.666Z,65535.00
2018-07-19T11:09:57.040Z,65535.00
2018-07-19T11:10:57.396Z,65535.00
2018-07-19T11:11:56.252Z,65535.00
2018-07-19T11:12:56.396Z,65535.00
2018-07-19T11:13:56.633Z,65535.00
2018-07-19T11:14:56.625Z,65535.00
2018-07-19T11:15:56.513Z,65535.00
2018-07-19T11:16:56.481Z,65535.00
2018-07-19T11:17:56.235Z,65535.00
2018-07-19T11:18:56.125Z,65535.00
2018-07-19T11:19:56.134Z,65535.00
2018-07-19T11:20:58.534Z,57688.00
2018-07-19T11:21:56.541Z,65535.00
2018-07-19T11:22:56.964Z,65535.00
2018-07-19T11:23:56.853Z,65535.00
2018-07-19T11:24:56.710Z,65535.00
2018-07-19T11:25:56.589Z,60824.00
2018-07-19T11:26:56.359Z,58272.00
2018-07-19T11:27:56.626Z,44544.00
2018-07-19T11:28:56.837Z,35704.00
2018-07-19T11:29:56.963Z,65535.00
2018-07-19T11:31:18.206Z,65535.00
2018-07-19T11:32:19.109Z,41192.00
2018-07-19T11:33:19.132Z,43520.00
2018-07-19T11:34:18.976Z,65535.00
2018-07-19T11:35:19.393Z,35344.00
2018-07-19T11:36:18.882Z,32696.00
2018-07-19T11:37:19.936Z,32000.00
2018-07-19T11:38:18.913Z,34768.00
2018-07-19T11:39:40.111Z,51320.00
2018-07-19T11:40:40.050Z,65535.00
2018-07-19T11:41:40.110Z,65535.00
2018-07-19T11:43:00.983Z,65535.00
2018-07-19T11:44:23.204Z,28680.00
2018-07-19T11:45:23.127Z,34696.00
2018-07-19T11:46:44.101Z,28040.00
2018-07-19T11:47:44.076Z,27200.00
2018-07-19T11:48:43.899Z,26728.00
2018-07-19T11:50:05.493Z,24824.00
2018-07-19T11:51:06.949Z,25376.00
2018-07-19T11:52:26.367Z,65535.00
2018-07-19T11:53:52.942Z,43496.00
2018-07-19T11:54:51.264Z,65535.00
2018-07-19T11:55:52.666Z,65535.00
2018-07-19T11:56:52.783Z,65535.00
2018-07-19T11:57:51.887Z,65535.00
2018-07-19T11:58:59.757Z,65535.00
2018-07-19T12:01:16.023Z,65535.00
2018-07-19T12:02:21.443Z,65535.00
2018-07-19T12:03:30.659Z,65535.00
2018-07-19T12:08:53.057Z,65535.00
2018-07-19T12:09:22.331Z,65535.00
2018-07-19T12:10:21.715Z,62480.00
2018-07-19T12:11:21.623Z,65535.00
2018-07-19T12:12:42.401Z,26752.00
2018-07-19T12:13:42.213Z,29680.00
2018-07-19T12:14:42.629Z,65535.00
2018-07-19T12:15:42.469Z,25656.00
2018-07-19T12:16:42.559Z,26808.00
2018-07-19T12:17:42.924Z,27728.00
2018-07-19T12:19:03.734Z,29936.00
2018-07-19T12:20:03.727Z,30912.00
2018-07-19T12:21:04.756Z,31048.00
2018-07-19T12:22:03.711Z,32160.00
2018-07-19T12:23:03.812Z,31744.00
2018-07-19T12:24:24.650Z,30240.00
2018-07-19T12:25:25.993Z,31032.00
2018-07-19T12:26:25.013Z,34920.00
2018-07-19T12:27:25.541Z,59304.00
2018-07-19T12:28:25.773Z,40184.00
2018-07-19T12:29:25.225Z,65535.00
2018-07-19T12:30:26.159Z,65535.00
2018-07-19T12:31:25.328Z,65535.00
2018-07-19T12:32:26.759Z,29584.00
2018-07-19T12:33:26.193Z,28296.00
2018-07-19T12:34:25.473Z,27912.00
2018-07-19T12:35:26.221Z,28512.00
2018-07-19T12:36:25.786Z,30504.00
2018-07-19T12:37:27.546Z,65535.00
2018-07-19T12:38:26.366Z,65535.00
2018-07-19T12:39:25.557Z,33992.00
2018-07-19T12:40:25.784Z,32200.00
2018-07-19T12:41:24.998Z,32512.00
2018-07-19T12:42:25.509Z,41728.00
2018-07-19T12:43:25.596Z,65535.00
2018-07-19T12:44:26.177Z,34576.00
2018-07-19T12:45:25.906Z,33896.00
2018-07-19T12:50:38.959Z,40008.00
2018-07-19T12:51:57.549Z,37152.00
2018-07-19T12:52:56.466Z,36336.00
2018-07-19T12:55:28.391Z,65535.00
2018-07-19T12:56:29.129Z,59632.00
2018-07-19T12:57:49.943Z,38464.00
2018-07-19T12:59:11.231Z,65535.00
2018-07-19T13:00:12.476Z,65535.00
2018-07-19T13:01:32.627Z,65535.00
2018-07-19T13:02:54.301Z,36808.00
2018-07-19T13:03:55.191Z,65535.00
2018-07-19T13:04:54.980Z,53592.00
2018-07-19T13:05:54.921Z,65535.00
2018-07-19T13:06:55.248Z,65535.00
2018-07-19T13:07:56.255Z,65535.00
2018-07-19T13:08:58.096Z,65535.00
2018-07-19T13:51:44.352Z,29192.00
2018-07-19T13:52:40.159Z,29480.00
2018-07-19T13:53:39.225Z,29824.00
2018-07-19T13:55:00.382Z,30496.00
2018-07-19T13:56:00.514Z,31504.00
2018-07-19T13:57:00.677Z,65535.00
2018-07-19T13:58:04.408Z,34656.00
2018-07-19T13:59:14.042Z,33832.00
2018-07-19T16:33:18.683Z,16143.00
2018-07-19T16:34:18.894Z,15332.00
2018-07-19T16:35:18.815Z,16209.00